Qeqertarsuaq

KL  EN  DA
ASIAQ
Weather Now GREENLAND SURVEY
Updated [WGT/WGST] Temperature [°C] Wind [m/s] Air pressure [hPa] Relative humidity [%] Precipitation [mm]
Present Wind chill Speed Max
30.11 16:00-6,3-13,76,5 ⇓9,81001650,0
30.11 15:00-5,6-12,76,2 ⇓9,31002630,0
30.11 14:00-5,1-9,93,3 ⇓8,61003630,0
30.11 13:00-4,9-11,96,4 ⇓8,51003650,0
30.11 12:00-4,7-11,35,9 ⇓8,31004660,0
30.11 11:00-4,3-10,65,5 ⇓6,91005720,0
30.11 10:00-4,3-10,75,7 ⇓7,61006690,0
30.11 09:00-4,5-10,85,4 ⇓8,01006710,0
30.11 08:00-3,9-10,05,3 ⇓8,41006690,0
30.11 07:00-4,2-11,06,3 ⇓7,81006700,0
30.11 06:00-5,0-11,55,5 ⇓6,91006690,0
30.11 05:00-5,00,00,9 ⇓1,51006770,0
30.11 04:00-3,80,00,6 ⇓5,31006770,0
30.11 03:00-3,2-8,24,0 ⇓6,61006800,0
30.11 02:00-2,9-8,14,4 ⇓9,01006830,0
30.11 01:00-2,6-9,16,8 ⇓9,61006830,0
30.11 00:00-2,4-9,17,3 ⇓10,61005790,0
29.11 23:00-2,2-9,17,8 ⇓13,61005800,0
29.11 22:00-2,5-10,410,2 ⇓13,41004860,0
29.11 21:00-1,4-8,89,5 ⇓14,41002910,0
29.11 20:00-1,5-9,311,0 ⇓13,51002870,0
29.11 19:00-1,7-8,78,6 ⇓11,61002790,0
29.11 18:00-1,7-8,58,1 ⇓13,01002810,0
29.11 17:00-1,5-7,36,1 ⇓8,91001960,0
29.11 16:00-1,4-7,25,9 ⇓11,31001800,0
Position: (69.24417,-53.52886)

[Back]